Time;durP1;ratioP1;P1;durP2;ratioP2;P2;SDS_P1;SDS_P2;PMS_P1;PMS_P2;Temp;Humidity;BMP_temperature;BMP_pressure;BME280_temperature;BME280_humidity;BME280_pressure;Samples;Min_cycle;Max_cycle;Signal;HPM_P1;HPM_P2
2022/03/31 00:02:26;;;;;;;17.38;7.32;;;;;;;12.58;74.46;98573.69;5115803;28;20039;-79
2022/03/31 00:04:55;;;;;;;17.05;7.88;;;;;;;12.55;75.05;98579.34;5116568;28;20058;-79
2022/03/31 00:07:23;;;;;;;16.27;7.60;;;;;;;12.52;74.78;98570.72;5116025;28;20040;-79
2022/03/31 00:09:52;;;;;;;17.88;8.40;;;;;;;12.51;74.51;98571.72;5116227;28;20085;-79
2022/03/31 00:12:21;;;;;;;16.63;8.30;;;;;;;12.56;73.55;98569.47;5115988;28;20039;-79
2022/03/31 00:14:50;;;;;;;19.70;7.90;;;;;;;12.49;73.94;98563.84;5116256;28;20469;-79
2022/03/31 00:17:19;;;;;;;17.83;8.13;;;;;;;12.51;73.36;98555.69;5115944;28;20062;-79
2022/03/31 00:19:47;;;;;;;17.80;7.85;;;;;;;12.50;73.17;98556.66;5115868;28;20055;-79
2022/03/31 00:22:19;;;;;;;16.35;8.07;;;;;;;12.46;72.42;98556.13;5115881;28;20047;-79
2022/03/31 00:24:47;;;;;;;18.58;8.05;;;;;;;12.46;72.41;98548.13;5115890;28;20142;-79
2022/03/31 00:27:15;;;;;;;16.65;7.85;;;;;;;12.50;72.00;98557.50;5115581;28;20047;-76
2022/03/31 00:29:44;;;;;;;22.05;8.32;;;;;;;12.53;71.40;98551.88;5114964;28;20044;-77
2022/03/31 00:32:13;;;;;;;14.32;7.75;;;;;;;12.37;71.51;98554.31;5097484;28;20083;-77
2022/03/31 00:34:42;;;;;;;18.80;8.18;;;;;;;12.39;71.62;98560.38;5115761;28;20040;-78
2022/03/31 00:37:11;;;;;;;18.98;8.10;;;;;;;12.49;70.58;98552.31;5115852;28;20039;-78
2022/03/31 00:39:39;;;;;;;22.60;8.00;;;;;;;12.53;70.55;98548.34;5115388;28;20047;-79
2022/03/31 00:42:09;;;;;;;16.65;7.70;;;;;;;12.49;70.52;98542.47;5115806;28;20040;-79
2022/03/31 00:44:37;;;;;;;22.63;8.00;;;;;;;12.49;70.71;98545.13;5115089;28;20046;-80
2022/03/31 00:47:06;;;;;;;19.27;8.13;;;;;;;12.35;71.10;98545.59;5115654;28;20049;-80
2022/03/31 00:49:35;;;;;;;14.82;7.45;;;;;;;12.38;71.13;98537.28;5115595;28;20043;-80
2022/03/31 00:52:06;;;;;;;20.95;7.38;;;;;;;12.35;71.09;98532.22;5115499;28;20522;-83
2022/03/31 00:54:35;;;;;;;19.42;8.18;;;;;;;12.40;70.88;98540.66;5114996;28;20062;-83
2022/03/31 00:57:06;;;;;;;17.27;7.65;;;;;;;12.31;71.23;98530.84;5115128;28;20112;-83
2022/03/31 00:59:34;;;;;;;18.00;7.65;;;;;;;12.31;71.22;98523.66;5096775;28;20047;-81
2022/03/31 01:02:03;;;;;;;16.80;7.13;;;;;;;12.24;71.79;98527.03;5097228;28;20051;-81
2022/03/31 01:04:34;;;;;;;20.27;8.65;;;;;;;12.22;71.82;98521.84;5114989;28;20053;-81
2022/03/31 01:07:03;;;;;;;16.83;7.20;;;;;;;12.18;71.92;98522.28;5115201;28;20162;-76
2022/03/31 01:09:32;;;;;;;19.02;7.63;;;;;;;12.15;72.30;98518.06;5114489;28;20055;-76
2022/03/31 01:12:02;;;;;;;19.52;7.70;;;;;;;12.21;71.96;98506.81;5114772;28;20043;-77
2022/03/31 01:14:31;;;;;;;20.02;7.68;;;;;;;12.22;71.80;98504.97;5114448;28;20047;-77
2022/03/31 01:17:00;;;;;;;16.80;7.55;;;;;;;12.25;72.00;98502.00;5115084;28;20031;-77
2022/03/31 01:19:29;;;;;;;16.08;7.78;;;;;;;12.15;72.24;98490.50;5114647;28;20437;-78
2022/03/31 01:21:58;;;;;;;17.52;7.90;;;;;;;12.15;72.42;98498.50;5114648;28;20036;-78
2022/03/31 01:24:28;;;;;;;17.92;8.48;;;;;;;12.11;72.61;98499.78;5114381;28;20043;-78
2022/03/31 01:26:57;;;;;;;15.63;7.97;;;;;;;12.07;72.53;98493.06;5097010;28;20058;-78
2022/03/31 01:29:27;;;;;;;19.15;7.95;;;;;;;12.06;73.06;98496.69;5114786;28;20050;-76
2022/03/31 01:31:57;;;;;;;19.38;7.35;;;;;;;12.04;73.03;98495.00;5114635;28;20085;-76
2022/03/31 01:34:26;;;;;;;18.40;7.60;;;;;;;12.00;73.29;98493.63;5114241;28;20063;-76
2022/03/31 01:36:54;;;;;;;21.33;8.07;;;;;;;11.99;73.62;98489.28;5114633;28;20123;-76
2022/03/31 01:39:22;;;;;;;19.75;8.38;;;;;;;12.01;73.51;98495.31;5114228;28;20096;-76
2022/03/31 01:41:52;;;;;;;14.93;7.85;;;;;;;12.01;73.69;98498.00;5113380;28;20124;-76
2022/03/31 01:44:21;;;;;;;19.42;7.88;;;;;;;12.10;73.33;98493.59;5114220;28;20088;-75
2022/03/31 01:46:49;;;;;;;16.05;7.95;;;;;;;12.21;72.75;98485.41;5096058;28;20071;-76
2022/03/31 01:49:18;;;;;;;20.05;7.65;;;;;;;12.17;72.55;98483.19;5114402;28;20126;-76
2022/03/31 01:51:46;;;;;;;19.55;8.40;;;;;;;12.15;72.89;98488.66;5114354;28;20468;-76
2022/03/31 01:54:14;;;;;;;15.77;7.65;;;;;;;12.19;72.78;98491.91;5114057;28;20075;-76
2022/03/31 01:56:42;;;;;;;14.90;7.55;;;;;;;12.13;73.04;98487.13;5114021;28;20108;-75
2022/03/31 01:59:12;;;;;;;20.23;7.82;;;;;;;12.21;72.73;98489.91;5114213;28;20070;-75
2022/03/31 02:01:41;;;;;;;16.35;7.68;;;;;;;12.24;72.59;98489.63;5113933;28;20044;-75
2022/03/31 02:04:10;;;;;;;20.40;8.73;;;;;;;12.20;72.67;98485.56;5114090;28;20050;-75
2022/03/31 02:06:38;;;;;;;21.80;7.93;;;;;;;12.20;72.77;98488.25;5113480;28;20467;-77
2022/03/31 02:09:06;;;;;;;18.98;8.20;;;;;;;12.12;73.21;98475.59;5113925;28;20047;-77
2022/03/31 02:11:35;;;;;;;16.60;7.35;;;;;;;12.11;73.41;98478.41;5113524;28;20040;-77
2022/03/31 02:14:03;;;;;;;18.15;8.20;;;;;;;12.11;73.56;98473.91;5114064;28;20036;-77
2022/03/31 02:16:32;;;;;;;14.80;8.05;;;;;;;12.11;73.54;98467.72;5113657;28;20047;-78
2022/03/31 02:19:01;;;;;;;19.38;7.75;;;;;;;11.99;74.41;98473.25;5113660;28;20044;-78
2022/03/31 02:21:29;;;;;;;20.55;8.70;;;;;;;11.95;74.84;98458.47;5113535;28;20550;-78
2022/03/31 02:23:57;;;;;;;18.23;9.23;;;;;;;11.99;75.50;98456.38;5113855;28;20493;-78
2022/03/31 02:26:26;;;;;;;19.67;9.85;;;;;;;12.07;76.11;98455.66;5113613;28;20101;-78
2022/03/31 02:28:54;;;;;;;22.02;9.50;;;;;;;12.03;76.55;98439.06;5113753;28;20048;-78
2022/03/31 02:31:22;;;;;;;21.20;10.07;;;;;;;12.00;76.19;98437.50;5113111;28;20093;-76
2022/03/31 02:33:52;;;;;;;20.40;9.50;;;;;;;11.96;77.04;98449.47;5113338;28;20497;-78
2022/03/31 02:36:20;;;;;;;21.30;9.88;;;;;;;11.76;78.52;98445.13;5113632;28;20075;-80
2022/03/31 02:38:49;;;;;;;20.98;10.02;;;;;;;11.73;78.80;98443.59;5113337;28;20050;-80
2022/03/31 02:41:19;;;;;;;20.55;9.82;;;;;;;11.66;79.42;98447.81;5113592;28;20039;-78
2022/03/31 02:43:47;;;;;;;23.08;10.45;;;;;;;11.61;79.86;98455.41;5113058;28;20069;-81
2022/03/31 02:46:15;;;;;;;20.98;10.35;;;;;;;11.63;79.88;98448.09;5113513;28;20051;-81
2022/03/31 02:48:44;;;;;;;19.13;10.13;;;;;;;11.63;79.69;98447.25;5113259;28;20043;-81
2022/03/31 02:51:16;;;;;;;21.20;10.10;;;;;;;11.68;79.69;98451.19;5113115;28;20054;-81
2022/03/31 02:56:30;;;;;;;22.73;10.98;;;;;;;11.64;79.76;98443.59;5117565;28;20040;-79
2022/03/31 02:58:59;;;;;;;22.33;10.85;;;;;;;11.56;80.69;98451.47;5117609;28;20039;-80
2022/03/31 03:01:28;;;;;;;25.50;10.82;;;;;;;11.67;79.79;98437.97;5117389;28;20559;-79
2022/03/31 03:03:58;;;;;;;23.05;10.27;;;;;;;11.61;80.16;98434.06;5117242;28;20055;-80
2022/03/31 03:06:27;;;;;;;18.02;10.43;;;;;;;11.62;80.06;98430.41;5116980;28;20473;-79
2022/03/31 03:08:56;;;;;;;29.83;12.30;;;;;;;11.58;80.80;98439.69;5117329;28;20046;-79
2022/03/31 03:11:24;;;;;;;23.17;11.98;;;;;;;11.67;79.99;98440.63;5117274;28;20143;-80
2022/03/31 03:13:52;;;;;;;23.33;10.45;;;;;;;11.87;78.70;98434.34;5117346;28;20067;-79
2022/03/31 03:16:20;;;;;;;25.35;12.00;;;;;;;11.68;80.02;98442.34;5117439;28;20050;-80
2022/03/31 03:18:49;;;;;;;22.30;10.93;;;;;;;11.66;80.11;98430.94;5117049;28;20100;-80
2022/03/31 03:21:17;;;;;;;26.33;11.05;;;;;;;11.60;80.54;98428.88;5117348;28;20040;-79
2022/03/31 03:23:48;;;;;;;19.95;10.73;;;;;;;11.71;79.82;98426.03;5117016;28;20053;-79
2022/03/31 03:26:17;;;;;;;21.80;10.55;;;;;;;11.77;79.56;98420.09;5117570;28;20051;-78
2022/03/31 03:28:46;;;;;;;24.35;11.45;;;;;;;11.79;79.18;98420.81;5116537;28;20061;-78
2022/03/31 03:31:14;;;;;;;23.00;10.57;;;;;;;11.79;79.04;98415.47;5117152;28;20047;-78
2022/03/31 03:33:43;;;;;;;20.92;10.88;;;;;;;11.82;78.81;98403.69;5116382;28;20082;-79
2022/03/31 03:36:12;;;;;;;20.45;11.13;;;;;;;11.83;78.94;98408.03;5117061;28;20119;-81
2022/03/31 03:38:41;;;;;;;20.85;10.77;;;;;;;11.81;78.96;98412.69;5116712;28;20126;-80
2022/03/31 03:41:12;;;;;;;22.55;11.27;;;;;;;11.75;79.34;98414.06;5116938;28;20096;-78
2022/03/31 03:43:41;;;;;;;22.20;10.75;;;;;;;11.75;79.32;98414.91;5116685;28;20047;-80
2022/03/31 03:46:10;;;;;;;28.02;11.48;;;;;;;11.72;79.45;98409.03;5116495;28;20044;-79
2022/03/31 03:48:40;;;;;;;22.98;12.45;;;;;;;11.69;79.82;98409.31;5116187;28;20062;-79
2022/03/31 03:51:09;;;;;;;25.40;12.50;;;;;;;11.61;80.24;98407.34;5116689;28;20408;-80
2022/03/31 03:53:37;;;;;;;26.98;12.27;;;;;;;11.49;80.94;98400.50;5116241;28;20063;-77
2022/03/31 03:56:06;;;;;;;20.58;11.73;;;;;;;11.44;81.58;98398.25;5116627;28;20126;-78
2022/03/31 03:58:35;;;;;;;21.38;12.77;;;;;;;11.40;81.78;98388.84;5116371;28;20047;-78
2022/03/31 04:01:04;;;;;;;28.40;15.52;;;;;;;11.36;82.30;98387.44;5116596;28;20047;-78
2022/03/31 04:03:32;;;;;;;24.60;12.93;;;;;;;11.38;82.06;98385.44;5116149;28;20097;-78
2022/03/31 04:06:00;;;;;;;25.33;13.40;;;;;;;11.37;82.45;98386.44;5115460;28;20049;-79
2022/03/31 04:08:29;;;;;;;27.00;13.32;;;;;;;11.35;82.40;98384.91;5116229;28;20054;-78
2022/03/31 04:10:57;;;;;;;22.42;12.05;;;;;;;11.53;81.27;98380.53;5116575;28;20126;-84
2022/03/31 04:13:25;;;;;;;26.20;13.32;;;;;;;11.43;81.90;98383.22;5116590;28;20093;-84
2022/03/31 04:15:55;;;;;;;22.23;11.85;;;;;;;11.39;81.96;98392.50;5116104;28;20093;-84
2022/03/31 04:18:24;;;;;;;24.98;12.88;;;;;;;11.39;82.39;98384.50;5116660;28;20047;-82
2022/03/31 04:20:54;;;;;;;23.10;12.65;;;;;;;11.40;82.03;98386.19;5115590;28;20049;-83
2022/03/31 04:23:22;;;;;;;22.98;12.50;;;;;;;11.39;81.51;98380.97;5115875;28;20089;-78
2022/03/31 04:25:50;;;;;;;21.83;13.13;;;;;;;11.43;80.99;98374.38;5115776;28;20110;-79
2022/03/31 04:28:19;;;;;;;21.92;12.50;;;;;;;11.39;81.13;98378.31;5116012;28;20043;-82
2022/03/31 04:30:47;;;;;;;27.00;12.10;;;;;;;11.39;80.90;98376.50;5115521;28;20044;-80
2022/03/31 04:33:17;;;;;;;26.05;13.05;;;;;;;11.47;80.39;98371.25;5115639;28;20035;-81
2022/03/31 04:35:45;;;;;;;24.27;13.27;;;;;;;11.50;79.73;98374.63;5115225;28;20050;-81
2022/03/31 04:38:14;;;;;;;24.83;12.90;;;;;;;11.50;79.50;98375.47;5115790;28;20043;-85
2022/03/31 04:40:42;;;;;;;26.35;14.13;;;;;;;11.54;79.71;98381.38;5115491;28;20104;-85
2022/03/31 04:43:10;;;;;;;23.77;13.93;;;;;;;11.50;79.67;98374.63;5115658;28;20062;-84
2022/03/31 04:45:38;;;;;;;27.52;13.68;;;;;;;11.46;79.98;98372.25;5115423;28;20044;-80
2022/03/31 04:48:07;;;;;;;27.52;13.55;;;;;;;11.47;79.27;98379.25;5115313;28;20105;-77
2022/03/31 04:50:37;;;;;;;28.65;13.98;;;;;;;11.60;78.53;98376.31;5115211;28;20036;-77
2022/03/31 04:53:07;;;;;;;27.42;13.52;;;;;;;11.69;78.14;98374.59;5115900;28;20366;-81
2022/03/31 04:55:35;;;;;;;23.67;13.20;;;;;;;11.66;78.37;98377.53;5115185;28;20092;-81
2022/03/31 04:58:03;;;;;;;23.85;13.45;;;;;;;11.56;79.03;98377.56;5115310;28;20054;-80
2022/03/31 05:00:32;;;;;;;28.20;13.75;;;;;;;11.56;79.20;98369.53;5115429;28;20400;-80
2022/03/31 05:03:01;;;;;;;24.45;13.65;;;;;;;11.57;79.55;98373.91;5115938;28;20040;-76
2022/03/31 05:05:29;;;;;;;29.00;14.00;;;;;;;11.61;79.86;98367.31;5116145;28;20138;-75
2022/03/31 05:07:59;;;;;;;23.00;12.32;;;;;;;11.59;80.14;98363.94;5114698;28;20498;-75
2022/03/31 05:10:27;;;;;;;23.88;13.52;;;;;;;11.59;80.08;98365.78;5114957;28;20093;-74
2022/03/31 05:12:56;;;;;;;25.17;13.55;;;;;;;11.55;81.38;98369.69;5114862;28;20074;-75
2022/03/31 05:15:24;;;;;;;25.52;13.27;;;;;;;11.56;80.71;98371.38;5114890;28;20043;-75
2022/03/31 05:17:52;;;;;;;28.83;13.13;;;;;;;11.52;81.96;98367.31;5114580;28;20044;-74
2022/03/31 05:20:22;;;;;;;24.00;12.98;;;;;;;11.61;80.70;98358.44;5114674;28;20092;-74
2022/03/31 05:22:50;;;;;;;25.23;13.45;;;;;;;11.65;81.23;98362.50;5114307;28;20509;-74
2022/03/31 05:25:20;;;;;;;29.48;14.10;;;;;;;11.65;80.57;98359.81;5114691;28;20066;-75
2022/03/31 05:27:51;;;;;;;28.65;13.40;;;;;;;11.73;81.49;98367.97;5114216;28;20127;-75
2022/03/31 05:30:20;;;;;;;27.73;14.00;;;;;;;11.68;82.19;98367.56;5114508;28;20092;-75
2022/03/31 05:32:48;;;;;;;25.63;14.88;;;;;;;11.74;81.93;98369.66;5113607;28;20047;-75
2022/03/31 05:35:18;;;;;;;26.70;14.48;;;;;;;11.81;81.66;98364.59;5114670;28;20078;-75
2022/03/31 05:37:46;;;;;;;27.98;14.65;;;;;;;11.82;82.05;98367.13;5114079;28;20085;-75
2022/03/31 05:40:17;;;;;;;26.98;14.55;;;;;;;11.91;80.79;98363.56;5114086;28;20477;-78
2022/03/31 05:42:46;;;;;;;28.13;15.18;;;;;;;11.84;81.05;98364.31;5113883;28;20036;-78
2022/03/31 05:45:16;;;;;;;29.02;14.13;;;;;;;11.77;82.65;98369.34;5114268;28;20123;-78
2022/03/31 05:47:45;;;;;;;25.88;14.25;;;;;;;11.83;82.22;98362.63;5114054;28;20044;-78
2022/03/31 05:50:14;;;;;;;29.88;14.57;;;;;;;11.81;82.04;98359.25;5113774;28;20376;-75
2022/03/31 05:52:43;;;;;;;27.45;14.88;;;;;;;11.82;82.48;98356.44;5113138;28;20043;-72
2022/03/31 05:55:13;;;;;;;27.88;14.85;;;;;;;11.85;83.17;98361.47;5113757;28;20040;-75
2022/03/31 05:57:42;;;;;;;31.83;14.60;;;;;;;11.87;83.93;98364.88;5113497;28;20044;-75
2022/03/31 06:00:16;;;;;;;24.25;14.50;;;;;;;11.84;83.86;98365.16;5113786;28;20119;-75
2022/03/31 06:02:45;;;;;;;22.67;13.02;;;;;;;11.83;82.81;98354.59;5113537;28;20468;-75
2022/03/31 06:05:18;;;;;;;21.63;13.20;;;;;;;11.83;81.71;98362.63;5114161;28;20067;-75
2022/03/31 06:07:46;;;;;;;25.38;14.10;;;;;;;11.73;83.41;98358.13;5113343;28;20043;-77
2022/03/31 06:10:18;;;;;;;23.75;13.40;;;;;;;11.57;83.77;98365.03;5113734;28;20040;-82
2022/03/31 06:12:46;;;;;;;26.23;13.88;;;;;;;11.61;85.14;98371.81;5113656;28;20470;-77
2022/03/31 06:15:17;;;;;;;24.08;14.82;;;;;;;11.50;87.68;98370.13;5113708;28;20035;-77
2022/03/31 06:17:46;;;;;;;22.05;13.88;;;;;;;11.58;85.43;98370.28;5113097;28;20040;-79
2022/03/31 06:20:15;;;;;;;31.05;13.65;;;;;;;11.61;85.58;98371.81;5113358;28;20484;-79
2022/03/31 06:22:44;;;;;;;26.17;14.45;;;;;;;11.55;85.70;98375.03;5113439;28;20040;-78
2022/03/31 06:25:14;;;;;;;24.98;14.18;;;;;;;11.43;85.35;98377.88;5113274;28;20051;-78
2022/03/31 06:27:46;;;;;;;26.55;14.10;;;;;;;11.59;84.75;98381.78;5094656;28;20073;-78
2022/03/31 06:30:17;;;;;;;28.33;15.02;;;;;;;11.62;85.68;98378.81;5113445;28;20047;-78
2022/03/31 06:32:46;;;;;;;28.17;14.82;;;;;;;11.56;87.22;98388.25;5113459;28;20065;-79
2022/03/31 06:35:15;;;;;;;28.02;15.25;;;;;;;11.48;87.71;98393.44;5113928;28;20043;-78
2022/03/31 06:37:44;;;;;;;30.02;15.10;;;;;;;11.32;90.62;98395.88;5095126;28;20054;-78
2022/03/31 06:40:13;;;;;;;28.70;16.08;;;;;;;11.37;91.14;98399.78;5113769;28;20443;-79
2022/03/31 06:42:44;;;;;;;26.58;15.90;;;;;;;11.37;93.74;98410.47;5113352;28;20484;-79
2022/03/31 06:45:15;;;;;;;27.73;15.45;;;;;;;11.26;94.25;98407.94;5113419;28;20118;-79
2022/03/31 06:48:04;;;;;;;30.48;15.45;;;;;;;11.20;96.35;98403.19;5112372;28;20079;-79
2022/03/31 06:50:35;;;;;;;31.70;16.08;;;;;;;11.15;100.00;98405.44;5113598;28;20040;-79
2022/03/31 06:53:04;;;;;;;34.55;16.85;;;;;;;11.21;100.00;98404.03;5113317;28;20092;-79
2022/03/31 06:55:32;;;;;;;30.80;15.80;;;;;;;11.08;100.00;98414.97;5113100;28;20138;-79
2022/03/31 06:58:01;;;;;;;28.92;16.33;;;;;;;11.04;100.00;98419.75;5094822;28;20484;-80
2022/03/31 07:00:29;;;;;;;29.90;16.27;;;;;;;11.07;100.00;98413.28;5113448;28;20096;-80
2022/03/31 07:03:00;;;;;;;27.33;16.23;;;;;;;11.15;100.00;98416.09;5112915;28;20422;-79
2022/03/31 07:05:30;;;;;;;32.90;17.05;;;;;;;11.18;100.00;98410.47;5113377;28;20036;-79
2022/03/31 07:08:05;;;;;;;31.08;15.93;;;;;;;11.12;100.00;98406.56;5113012;28;20126;-78
2022/03/31 07:10:35;;;;;;;34.75;16.15;;;;;;;11.20;100.00;98403.19;5113405;28;20378;-79
2022/03/31 07:13:04;;;;;;;30.80;16.40;;;;;;;11.19;100.00;98406.81;5112638;28;20051;-79
2022/03/31 07:15:34;;;;;;;29.13;16.10;;;;;;;11.29;100.00;98399.69;5112862;28;20498;-79
2022/03/31 07:18:03;;;;;;;26.45;16.27;;;;;;;11.40;100.00;98404.88;5112565;28;20051;-79
2022/03/31 07:20:34;;;;;;;29.27;16.60;;;;;;;11.27;100.00;98390.09;5112892;28;20178;-79
2022/03/31 07:23:03;;;;;;;29.02;17.42;;;;;;;11.24;100.00;98398.41;5112346;28;20054;-79
2022/03/31 07:25:32;;;;;;;35.05;18.23;;;;;;;11.20;100.00;98400.53;5112801;28;20058;-79
2022/03/31 07:28:00;;;;;;;32.92;18.38;;;;;;;11.24;100.00;98395.75;5112317;28;20468;-78
2022/03/31 07:30:30;;;;;;;36.28;18.63;;;;;;;11.23;100.00;98396.72;5112747;28;20142;-78
2022/03/31 07:33:00;;;;;;;29.20;17.25;;;;;;;11.33;100.00;98386.88;5112441;28;20397;-79
2022/03/31 07:35:30;;;;;;;28.02;16.13;;;;;;;11.16;100.00;98391.09;5112938;28;20043;-79
2022/03/31 07:38:03;;;;;;;29.67;18.10;;;;;;;11.27;100.00;98393.63;5112531;28;20541;-79
2022/03/31 07:40:32;;;;;;;27.23;15.88;;;;;;;11.38;100.00;98390.78;5115583;28;20043;-78
2022/03/31 07:43:01;;;;;;;30.17;17.25;;;;;;;11.37;100.00;98394.44;5116095;28;20082;-80
2022/03/31 07:45:30;;;;;;;28.27;17.23;;;;;;;11.37;100.00;98386.44;5116509;28;20050;-79
2022/03/31 07:47:58;;;;;;;31.63;16.48;;;;;;;11.40;100.00;98378.16;5116342;28;20039;-79
2022/03/31 07:50:26;;;;;;;30.75;18.80;;;;;;;11.34;100.00;98384.06;5116275;28;20048;-79
2022/03/31 07:52:55;;;;;;;28.58;17.92;;;;;;;11.42;100.00;98391.38;5116300;28;20100;-80
2022/03/31 07:55:25;;;;;;;29.45;17.42;;;;;;;11.54;100.00;98390.22;5116430;28;20576;-80
2022/03/31 07:57:54;;;;;;;28.63;16.90;;;;;;;11.46;100.00;98385.59;5116283;28;20122;-80
2022/03/31 08:00:23;;;;;;;30.00;18.00;;;;;;;11.34;100.00;98392.06;5116350;28;20043;-80
2022/03/31 08:02:53;;;;;;;28.02;16.83;;;;;;;11.39;100.00;98392.50;5116069;28;20047;-79
2022/03/31 08:05:23;;;;;;;26.63;16.27;;;;;;;11.45;100.00;98402.59;5116048;28;20412;-79
2022/03/31 08:07:52;;;;;;;26.45;16.13;;;;;;;11.32;100.00;98401.22;5115760;28;20050;-79
2022/03/31 08:10:22;;;;;;;33.45;18.95;;;;;;;11.37;100.00;98393.59;5097951;28;20044;-80
2022/03/31 08:12:52;;;;;;;29.83;15.77;;;;;;;11.21;100.00;98394.19;5115759;28;20047;-79
2022/03/31 08:15:22;;;;;;;29.63;16.90;;;;;;;11.17;100.00;98387.44;5116015;28;20055;-79
2022/03/31 08:17:51;;;;;;;32.90;16.83;;;;;;;11.13;100.00;98381.56;5115808;28;20404;-79
2022/03/31 08:20:20;;;;;;;26.00;16.33;;;;;;;11.05;100.00;98377.91;5116173;28;20382;-80
2022/03/31 08:22:49;;;;;;;30.65;16.48;;;;;;;10.87;100.00;98383.94;5115748;28;20092;-79
2022/03/31 08:25:20;;;;;;;29.67;16.48;;;;;;;11.17;100.00;98380.28;5115666;28;20052;-79
2022/03/31 08:27:49;;;;;;;29.17;16.77;;;;;;;11.14;100.00;98366.38;5115764;28;20042;-79
2022/03/31 08:30:23;;;;;;;32.85;17.65;;;;;;;10.94;100.00;98362.03;5116001;28;20100;-78
2022/03/31 08:32:52;;;;;;;29.10;16.37;;;;;;;10.71;100.00;98353.44;5115634;28;20172;-80
2022/03/31 08:35:22;;;;;;;35.20;17.25;;;;;;;10.60;100.00;98349.09;5097283;28;20129;-79
2022/03/31 08:37:50;;;;;;;27.95;16.75;;;;;;;10.75;100.00;98350.38;5115135;28;20048;-79
2022/03/31 08:40:19;;;;;;;31.05;18.50;;;;;;;10.55;100.00;98346.84;5115576;28;20040;-79
2022/03/31 08:42:47;;;;;;;32.05;18.60;;;;;;;10.88;100.00;98342.09;5115765;28;20040;-79
2022/03/31 08:45:18;;;;;;;33.45;18.42;;;;;;;11.00;100.00;98332.13;5115102;28;20551;-80
2022/03/31 08:47:49;;;;;;;31.73;18.80;;;;;;;11.07;100.00;98338.59;5115201;28;20451;-80
2022/03/31 08:50:20;;;;;;;32.38;18.60;;;;;;;11.05;100.00;98336.06;5115266;28;20105;-80
2022/03/31 08:52:49;;;;;;;30.45;16.98;;;;;;;11.26;100.00;98327.88;5114684;28;20040;-79
2022/03/31 08:55:19;;;;;;;28.80;18.00;;;;;;;11.15;100.00;98330.72;5114838;28;20577;-79
2022/03/31 08:57:49;;;;;;;30.77;16.48;;;;;;;11.17;100.00;98332.25;5114945;28;20130;-79
2022/03/31 09:00:21;;;;;;;30.80;17.75;;;;;;;11.24;100.00;98335.19;5096629;28;20134;-79
2022/03/31 09:02:58;;;;;;;30.80;17.88;;;;;;;11.13;100.00;98332.69;5115156;28;20040;-79
2022/03/31 09:05:28;;;;;;;29.00;15.80;;;;;;;10.87;100.00;98330.59;5114662;28;20063;-79
2022/03/31 09:08:05;;;;;;;31.63;17.83;;;;;;;10.99;100.00;98323.28;5114783;28;20047;-79
2022/03/31 09:10:37;;;;;;;30.83;17.45;;;;;;;10.86;100.00;98314.72;5115417;28;20050;-79
2022/03/31 09:13:18;;;;;;;32.35;17.15;;;;;;;11.02;100.00;98311.50;5114551;28;20086;-79
2022/03/31 09:15:51;;;;;;;32.25;17.67;;;;;;;11.12;100.00;98304.31;5114855;28;20063;-79
2022/03/31 09:18:23;;;;;;;35.88;18.10;;;;;;;10.98;100.00;98307.41;5115315;28;20044;-79
2022/03/31 09:20:54;;;;;;;30.13;17.90;;;;;;;11.21;100.00;98303.47;5114554;28;20047;-79
2022/03/31 09:23:25;;;;;;;35.10;18.55;;;;;;;11.33;100.00;98301.47;5114674;28;20115;-80
2022/03/31 09:26:01;;;;;;;30.88;18.15;;;;;;;11.32;100.00;98295.28;5114457;28;20047;-78
2022/03/31 09:28:31;;;;;;;31.10;17.60;;;;;;;11.41;100.00;98291.75;5114836;28;20050;-80
2022/03/31 09:31:00;;;;;;;32.42;19.52;;;;;;;11.46;100.00;98291.31;5114439;28;20370;-79
2022/03/31 09:33:32;;;;;;;35.38;18.38;;;;;;;11.37;100.00;98287.69;5114691;28;20036;-80
2022/03/31 09:36:03;;;;;;;32.78;17.67;;;;;;;11.35;100.00;98295.00;5114634;28;20469;-80
2022/03/31 09:38:35;;;;;;;29.20;16.48;;;;;;;11.43;100.00;98295.13;5114703;28;20046;-80
2022/03/31 09:41:18;;;;;;;27.50;15.30;;;;;;;11.15;100.00;98294.19;5114005;28;20141;-78
2022/03/31 09:43:48;;;;;;;33.72;17.02;;;;;;;11.13;100.00;98293.50;5114362;28;20067;-79
2022/03/31 09:46:25;;;;;;;28.38;15.90;;;;;;;11.24;100.00;98276.47;5113884;28;20035;-79
2022/03/31 09:49:12;;;;;;;30.23;16.25;;;;;;;11.13;100.00;98284.66;5114078;28;20073;-79
2022/03/31 09:51:41;;;;;;;27.02;15.68;;;;;;;11.24;100.00;98273.81;5114543;28;20036;-79
2022/03/31 09:54:11;;;;;;;35.42;16.67;;;;;;;11.15;100.00;98277.34;5113858;28;20455;-79
2022/03/31 09:56:40;;;;;;;35.35;18.17;;;;;;;11.11;100.00;98271.47;5114261;28;20039;-79
2022/03/31 09:59:11;;;;;;;28.35;16.75;;;;;;;11.28;100.00;98261.00;5113565;28;20088;-80
2022/03/31 10:01:51;;;;;;;28.38;17.83;;;;;;;11.42;100.00;98268.56;5114094;28;20104;-80
2022/03/31 10:04:22;;;;;;;36.10;18.00;;;;;;;11.50;100.00;98251.81;5094795;28;20126;-80
2022/03/31 10:06:55;;;;;;;29.85;17.48;;;;;;;11.33;100.00;98243.59;5114176;28;20067;-80
2022/03/31 10:09:25;;;;;;;30.52;17.50;;;;;;;11.34;100.00;98239.09;5114166;28;20035;-80
2022/03/31 10:12:02;;;;;;;34.58;18.95;;;;;;;11.28;100.00;98243.16;5113687;28;20512;-79
2022/03/31 10:14:40;;;;;;;28.83;17.42;;;;;;;11.27;100.00;98241.50;5114210;28;20043;-79
2022/03/31 10:17:09;;;;;;;40.28;18.58;;;;;;;11.24;100.00;98241.78;5113623;28;20040;-79
2022/03/31 10:19:43;;;;;;;27.98;16.65;;;;;;;11.20;100.00;98232.41;5113583;28;20074;-79
2022/03/31 10:24:41;;;;;;;28.13;17.33;;;;;;;11.12;100.00;98229.63;5113457;28;20043;-79
2022/03/31 10:25:07;;;;;;;31.33;17.38;;;;;;;10.98;100.00;98238.06;5112943;28;20499;-79
2022/03/31 10:27:45;;;;;;;27.50;17.48;;;;;;;10.89;100.00;98247.75;5113505;28;20085;-79
2022/03/31 18:26:37;;;;;;;11.53;9.50;;;;;;;10.44;100.00;97792.63;5104514;23;20052;-75
2022/03/31 18:29:06;;;;;;;14.15;9.98;;;;;;;10.54;100.00;97790.72;4895463;29;20049;-73
2022/03/31 18:34:20;;;;;;;12.32;9.32;;;;;;;10.50;100.00;97792.00;4896189;29;20080;-75
2022/03/31 18:36:50;;;;;;;12.70;10.00;;;;;;;10.59;100.00;97798.25;4881690;29;20064;-73
2022/03/31 18:39:19;;;;;;;13.35;10.02;;;;;;;10.50;100.00;97801.81;4898609;29;20051;-75
2022/03/31 18:41:48;;;;;;;13.07;9.73;;;;;;;10.63;100.00;97801.47;4898702;29;20060;-74
2022/03/31 18:44:21;;;;;;;13.68;10.75;;;;;;;10.58;100.00;97799.25;4898541;29;20044;-74
2022/03/31 18:46:49;;;;;;;;;;;;;;;10.53;100.00;97801.53;4898477;29;20052;-76
2022/03/31 18:49:18;;;;;;;12.10;9.32;;;;;;;10.62;100.00;97797.97;4898284;29;20025;-74
2022/03/31 18:51:46;;;;;;;14.80;10.73;;;;;;;10.72;100.00;97795.22;4898158;29;20124;-75
2022/03/31 18:54:18;;;;;;;17.02;11.60;;;;;;;10.66;100.00;97802.00;4897864;29;20057;-75
2022/03/31 18:56:48;;;;;;;17.27;11.90;;;;;;;10.57;100.00;97803.75;4898045;29;20049;-77
2022/03/31 18:59:16;;;;;;;15.27;11.75;;;;;;;10.71;100.00;97814.84;4898735;29;20052;-77
2022/03/31 19:01:45;;;;;;;14.32;11.73;;;;;;;10.63;100.00;97807.63;4897004;29;20178;-77
2022/03/31 19:04:15;;;;;;;15.68;12.00;;;;;;;10.64;100.00;97809.31;4897773;29;20040;-74
2022/03/31 19:09:34;;;;;;;14.63;12.00;;;;;;;10.62;100.00;97807.78;4894559;29;20132;-74
2022/03/31 19:12:07;;;;;;;17.35;13.80;;;;;;;10.59;100.00;97808.91;4897294;29;20064;-72
2022/03/31 19:14:39;;;;;;;16.13;12.52;;;;;;;10.65;100.00;97810.97;4897058;29;20044;-74
2022/03/31 19:17:26;;;;;;;18.17;14.00;;;;;;;10.75;100.00;97814.41;4897138;29;20049;-75
2022/03/31 19:19:57;;;;;;;17.95;13.55;;;;;;;10.62;100.00;97805.97;4897006;29;20040;-72
2022/03/31 19:22:25;;;;;;;17.08;12.55;;;;;;;10.74;100.00;97802.06;4877992;29;20045;-76
2022/03/31 19:24:54;;;;;;;18.27;13.40;;;;;;;10.62;100.00;97807.78;4878914;29;20071;-75
2022/03/31 19:27:23;;;;;;;18.02;13.55;;;;;;;10.68;100.00;97805.34;4877750;29;20057;-75
2022/03/31 19:29:53;;;;;;;16.15;12.50;;;;;;;10.67;100.00;97809.00;4877321;29;20045;-74
2022/03/31 19:32:24;;;;;;;19.40;13.77;;;;;;;10.62;100.00;97805.13;4877519;29;20483;-74
2022/03/31 19:34:53;;;;;;;20.30;13.73;;;;;;;10.69;100.00;97799.00;4877638;29;20049;-76